sensor_id;sensor_type;location;lat;lon;timestamp;pressure;altitude;pressure_sealevel;temperature;humidity
38780;BME280;29273;49.962;9.768;2024-02-21T00:00:44;100680.97;;;11.32;57.35
38780;BME280;29273;49.962;9.768;2024-02-21T00:03:09;100677.50;;;11.32;57.43
38780;BME280;29273;49.962;9.768;2024-02-21T00:05:35;100674.66;;;11.33;57.47
38780;BME280;29273;49.962;9.768;2024-02-21T00:08:00;100674.66;;;11.33;57.53
38780;BME280;29273;49.962;9.768;2024-02-21T00:10:26;100667.53;;;11.34;57.56
38780;BME280;29273;49.962;9.768;2024-02-21T00:12:51;100667.34;;;11.35;57.84
38780;BME280;29273;49.962;9.768;2024-02-21T00:15:17;100664.69;;;11.35;57.67
38780;BME280;29273;49.962;9.768;2024-02-21T00:17:43;100663.69;;;11.36;57.50
38780;BME280;29273;49.962;9.768;2024-02-21T00:20:09;100665.31;;;11.37;57.51
38780;BME280;29273;49.962;9.768;2024-02-21T00:22:36;100656.56;;;11.37;57.54
38780;BME280;29273;49.962;9.768;2024-02-21T00:25:01;100648.59;;;11.37;57.50
38780;BME280;29273;49.962;9.768;2024-02-21T00:27:27;100644.09;;;11.37;57.34
38780;BME280;29273;49.962;9.768;2024-02-21T00:29:53;100644.94;;;11.38;57.25
38780;BME280;29273;49.962;9.768;2024-02-21T00:32:18;100647.59;;;11.38;56.93
38780;BME280;29273;49.962;9.768;2024-02-21T00:34:43;100630.03;;;11.37;56.56
38780;BME280;29273;49.962;9.768;2024-02-21T00:37:09;100626.38;;;11.38;56.38
38780;BME280;29273;49.962;9.768;2024-02-21T00:39:34;100620.91;;;11.39;56.63
38780;BME280;29273;49.962;9.768;2024-02-21T00:42:00;100620.91;;;11.39;56.20
38780;BME280;29273;49.962;9.768;2024-02-21T00:44:26;100621.72;;;11.40;56.69
38780;BME280;29273;49.962;9.768;2024-02-21T00:46:51;100611.09;;;11.40;56.45
38780;BME280;29273;49.962;9.768;2024-02-21T00:49:18;100603.94;;;11.40;56.28
38780;BME280;29273;49.962;9.768;2024-02-21T00:51:43;100608.25;;;11.41;56.39
38780;BME280;29273;49.962;9.768;2024-02-21T00:54:09;100607.44;;;11.41;56.75
38780;BME280;29273;49.962;9.768;2024-02-21T00:56:34;100603.78;;;11.42;56.50
38780;BME280;29273;49.962;9.768;2024-02-21T00:59:00;100601.97;;;11.42;56.64
38780;BME280;29273;49.962;9.768;2024-02-21T01:01:26;100588.47;;;11.44;56.66
38780;BME280;29273;49.962;9.768;2024-02-21T01:03:52;100585.03;;;11.43;56.49
38780;BME280;29273;49.962;9.768;2024-02-21T01:06:20;100583.84;;;11.46;57.00
38780;BME280;29273;49.962;9.768;2024-02-21T01:08:49;100591.22;;;11.51;57.06
38780;BME280;29273;49.962;9.768;2024-02-21T01:11:15;100588.97;;;11.47;56.78
38780;BME280;29273;49.962;9.768;2024-02-21T01:13:41;100589.75;;;11.48;57.06
38780;BME280;29273;49.962;9.768;2024-02-21T01:16:06;100587.94;;;11.48;56.99
38780;BME280;29273;49.962;9.768;2024-02-21T01:18:33;100588.56;;;11.51;57.25
38780;BME280;29273;49.962;9.768;2024-02-21T01:20:59;100579.59;;;11.52;57.06
38780;BME280;29273;49.962;9.768;2024-02-21T01:23:24;100581.25;;;11.53;56.90
38780;BME280;29273;49.962;9.768;2024-02-21T01:25:50;100569.78;;;11.52;56.89
38780;BME280;29273;49.962;9.768;2024-02-21T01:28:16;100566.97;;;11.54;56.66
38780;BME280;29273;49.962;9.768;2024-02-21T01:30:41;100563.31;;;11.55;57.09
38780;BME280;29273;49.962;9.768;2024-02-21T01:33:07;100553.50;;;11.55;57.35
38780;BME280;29273;49.962;9.768;2024-02-21T01:35:32;100542.91;;;11.55;57.71
38780;BME280;29273;49.962;9.768;2024-02-21T01:37:58;100538.44;;;11.56;57.93
38780;BME280;29273;49.962;9.768;2024-02-21T01:40:23;100526.97;;;11.55;57.97
38780;BME280;29273;49.962;9.768;2024-02-21T01:42:48;100525.16;;;11.56;58.31
38780;BME280;29273;49.962;9.768;2024-02-21T01:45:14;100518.03;;;11.56;58.80
38780;BME280;29273;49.962;9.768;2024-02-21T01:47:40;100522.50;;;11.56;58.63
38780;BME280;29273;49.962;9.768;2024-02-21T01:50:06;100536.59;;;11.56;58.84
38780;BME280;29273;49.962;9.768;2024-02-21T01:52:32;100538.44;;;11.56;59.50
38780;BME280;29273;49.962;9.768;2024-02-21T01:55:00;100561.28;;;11.57;60.08
38780;BME280;29273;49.962;9.768;2024-02-21T01:57:26;100565.97;;;11.55;60.24
38780;BME280;29273;49.962;9.768;2024-02-21T01:59:54;100563.31;;;11.55;59.91
38780;BME280;29273;49.962;9.768;2024-02-21T02:02:19;100557.38;;;11.53;59.98
38780;BME280;29273;49.962;9.768;2024-02-21T02:04:45;100555.53;;;11.53;60.07
38780;BME280;29273;49.962;9.768;2024-02-21T02:07:11;100562.69;;;11.53;60.55
38780;BME280;29273;49.962;9.768;2024-02-21T02:09:36;100557.56;;;11.51;60.58
38780;BME280;29273;49.962;9.768;2024-02-21T02:12:02;100547.13;;;11.50;60.69
38780;BME280;29273;49.962;9.768;2024-02-21T02:14:28;100526.72;;;11.50;60.69
38780;BME280;29273;49.962;9.768;2024-02-21T02:16:53;100527.94;;;11.47;60.95
38780;BME280;29273;49.962;9.768;2024-02-21T02:19:19;100525.47;;;11.46;60.91
38780;BME280;29273;49.962;9.768;2024-02-21T02:21:46;100528.56;;;11.50;61.11
38780;BME280;29273;49.962;9.768;2024-02-21T02:24:19;100524.44;;;11.47;61.15
38780;BME280;29273;49.962;9.768;2024-02-21T02:26:45;100516.88;;;11.44;61.35
38780;BME280;29273;49.962;9.768;2024-02-21T02:29:11;100513.41;;;11.43;61.14
38780;BME280;29273;49.962;9.768;2024-02-21T02:31:36;100502.19;;;11.41;61.39
38780;BME280;29273;49.962;9.768;2024-02-21T02:34:03;100501.38;;;11.41;61.35
38780;BME280;29273;49.962;9.768;2024-02-21T02:36:31;100495.03;;;11.42;61.39
38780;BME280;29273;49.962;9.768;2024-02-21T02:38:57;100492.75;;;11.39;61.32
38780;BME280;29273;49.962;9.768;2024-02-21T02:41:22;100499.09;;;11.38;61.48
38780;BME280;29273;49.962;9.768;2024-02-21T02:43:47;100507.41;;;11.35;61.29
38780;BME280;29273;49.962;9.768;2024-02-21T02:46:13;100506.78;;;11.33;61.55
38780;BME280;29273;49.962;9.768;2024-02-21T02:48:38;100514.94;;;11.31;61.48
38780;BME280;29273;49.962;9.768;2024-02-21T02:51:04;100512.66;;;11.28;61.54
38780;BME280;29273;49.962;9.768;2024-02-21T02:53:29;100506.53;;;11.27;61.45
38780;BME280;29273;49.962;9.768;2024-02-21T02:55:55;100508.34;;;11.27;61.48
38780;BME280;29273;49.962;9.768;2024-02-21T02:58:21;100503.88;;;11.27;61.67
38780;BME280;29273;49.962;9.768;2024-02-21T03:00:46;100500.41;;;11.27;61.95
38780;BME280;29273;49.962;9.768;2024-02-21T03:03:11;100503.22;;;11.25;61.96
38780;BME280;29273;49.962;9.768;2024-02-21T03:05:37;100499.97;;;11.23;61.86
38780;BME280;29273;49.962;9.768;2024-02-21T03:08:03;100502.59;;;11.23;61.79
38780;BME280;29273;49.962;9.768;2024-02-21T03:10:33;100504.44;;;11.23;61.63
38780;BME280;29273;49.962;9.768;2024-02-21T03:12:58;100498.53;;;11.21;61.91
38780;BME280;29273;49.962;9.768;2024-02-21T03:15:24;100488.09;;;11.19;61.77
38780;BME280;29273;49.962;9.768;2024-02-21T03:17:49;100487.44;;;11.17;61.88
38780;BME280;29273;49.962;9.768;2024-02-21T03:20:15;100481.72;;;11.14;61.87
38780;BME280;29273;49.962;9.768;2024-02-21T03:22:41;100477.03;;;11.16;61.99
38780;BME280;29273;49.962;9.768;2024-02-21T03:25:08;100470.91;;;11.15;61.96
38780;BME280;29273;49.962;9.768;2024-02-21T03:27:34;100469.47;;;11.13;61.90
38780;BME280;29273;49.962;9.768;2024-02-21T03:29:59;100469.66;;;11.11;61.75
38780;BME280;29273;49.962;9.768;2024-02-21T03:32:25;100463.53;;;11.10;62.02
38780;BME280;29273;49.962;9.768;2024-02-21T03:34:50;100454.94;;;11.08;62.00
38780;BME280;29273;49.962;9.768;2024-02-21T03:37:16;100453.31;;;11.07;62.11
38780;BME280;29273;49.962;9.768;2024-02-21T03:39:41;100454.13;;;11.08;61.83
38780;BME280;29273;49.962;9.768;2024-02-21T03:42:07;100450.00;;;11.05;61.94
38780;BME280;29273;49.962;9.768;2024-02-21T03:44:33;100451.84;;;11.05;61.70
38780;BME280;29273;49.962;9.768;2024-02-21T03:46:59;100444.53;;;11.07;61.50
38780;BME280;29273;49.962;9.768;2024-02-21T03:49:25;100445.75;;;11.04;61.36
38780;BME280;29273;49.962;9.768;2024-02-21T03:51:51;100452.03;;;11.03;61.60
38780;BME280;29273;49.962;9.768;2024-02-21T03:54:16;100453.25;;;11.01;61.56
38780;BME280;29273;49.962;9.768;2024-02-21T03:56:42;100437.53;;;10.99;61.70
38780;BME280;29273;49.962;9.768;2024-02-21T03:59:07;100433.44;;;10.97;61.80
38780;BME280;29273;49.962;9.768;2024-02-21T04:01:34;100441.19;;;10.98;61.84
38780;BME280;29273;49.962;9.768;2024-02-21T04:03:59;100432.63;;;10.96;61.82
38780;BME280;29273;49.962;9.768;2024-02-21T04:06:25;100427.69;;;10.93;61.63
38780;BME280;29273;49.962;9.768;2024-02-21T04:08:50;100433.97;;;10.92;61.62
38780;BME280;29273;49.962;9.768;2024-02-21T04:11:16;100431.53;;;10.90;61.37
38780;BME280;29273;49.962;9.768;2024-02-21T04:13:42;100421.28;;;10.87;61.46
38780;BME280;29273;49.962;9.768;2024-02-21T04:16:08;100417.22;;;10.85;61.31
38780;BME280;29273;49.962;9.768;2024-02-21T04:18:33;100416.59;;;10.83;61.63
38780;BME280;29273;49.962;9.768;2024-02-21T04:20:59;100424.28;;;10.78;60.93
38780;BME280;29273;49.962;9.768;2024-02-21T04:23:24;100423.63;;;10.76;60.83
38780;BME280;29273;49.962;9.768;2024-02-21T04:25:50;100408.13;;;10.72;61.08
38780;BME280;29273;49.962;9.768;2024-02-21T04:28:15;100404.00;;;10.70;61.01
38780;BME280;29273;49.962;9.768;2024-02-21T04:30:41;100412.31;;;10.67;60.81
38780;BME280;29273;49.962;9.768;2024-02-21T04:33:06;100416.38;;;10.63;60.66
38780;BME280;29273;49.962;9.768;2024-02-21T04:35:31;100421.84;;;10.61;60.98
38780;BME280;29273;49.962;9.768;2024-02-21T04:37:57;100414.28;;;10.58;60.95
38780;BME280;29273;49.962;9.768;2024-02-21T04:40:22;100412.81;;;10.55;61.05
38780;BME280;29273;49.962;9.768;2024-02-21T04:42:48;100412.19;;;10.53;61.15
38780;BME280;29273;49.962;9.768;2024-02-21T04:45:13;100424.59;;;10.53;61.27
38780;BME280;29273;49.962;9.768;2024-02-21T04:47:39;100424.78;;;10.51;61.37
38780;BME280;29273;49.962;9.768;2024-02-21T04:50:04;100410.75;;;10.51;61.85
38780;BME280;29273;49.962;9.768;2024-02-21T04:52:31;100421.34;;;10.51;61.50
38780;BME280;29273;49.962;9.768;2024-02-21T04:54:56;100423.13;;;10.50;61.70
38780;BME280;29273;49.962;9.768;2024-02-21T04:57:22;100426.81;;;10.49;61.64
38780;BME280;29273;49.962;9.768;2024-02-21T04:59:47;100424.97;;;10.50;61.97
38780;BME280;29273;49.962;9.768;2024-02-21T05:02:13;100424.78;;;10.51;61.98
38780;BME280;29273;49.962;9.768;2024-02-21T05:04:39;100407.06;;;10.52;62.14
38780;BME280;29273;49.962;9.768;2024-02-21T05:07:06;100401.59;;;10.53;62.20
38780;BME280;29273;49.962;9.768;2024-02-21T05:09:32;100396.28;;;10.53;62.08
38780;BME280;29273;49.962;9.768;2024-02-21T05:11:57;100388.16;;;10.55;62.18
38780;BME280;29273;49.962;9.768;2024-02-21T05:14:26;100388.97;;;10.55;62.03
38780;BME280;29273;49.962;9.768;2024-02-21T05:16:55;100395.91;;;10.57;61.99
38780;BME280;29273;49.962;9.768;2024-02-21T05:19:20;100387.16;;;10.56;62.25
38780;BME280;29273;49.962;9.768;2024-02-21T05:21:46;100373.91;;;10.56;61.99
38780;BME280;29273;49.962;9.768;2024-02-21T05:24:11;100376.56;;;10.56;62.04
38780;BME280;29273;49.962;9.768;2024-02-21T05:26:37;100372.91;;;10.57;62.00
38780;BME280;29273;49.962;9.768;2024-02-21T05:29:03;100362.31;;;10.57;61.92
38780;BME280;29273;49.962;9.768;2024-02-21T05:34:16;100361.69;;;10.55;61.96
38780;BME280;29273;49.962;9.768;2024-02-21T05:36:42;100358.22;;;10.54;61.79
38780;BME280;29273;49.962;9.768;2024-02-21T05:39:07;100351.44;;;10.52;61.79
38780;BME280;29273;49.962;9.768;2024-02-21T05:41:33;100360.44;;;10.51;61.59
38780;BME280;29273;49.962;9.768;2024-02-21T05:43:58;100363.25;;;10.49;61.11
38780;BME280;29273;49.962;9.768;2024-02-21T05:46:23;100360.78;;;10.48;61.46
38780;BME280;29273;49.962;9.768;2024-02-21T05:48:49;100357.72;;;10.44;61.38
38780;BME280;29273;49.962;9.768;2024-02-21T05:51:15;100361.34;;;10.43;61.47
38780;BME280;29273;49.962;9.768;2024-02-21T05:53:41;100358.06;;;10.41;61.40
38780;BME280;29273;49.962;9.768;2024-02-21T05:56:10;100359.50;;;10.44;61.71
38780;BME280;29273;49.962;9.768;2024-02-21T05:58:37;100355.78;;;10.38;61.46
38780;BME280;29273;49.962;9.768;2024-02-21T06:01:02;100357.81;;;10.36;61.02
38780;BME280;29273;49.962;9.768;2024-02-21T06:03:29;100359.00;;;10.33;61.09
38780;BME280;29273;49.962;9.768;2024-02-21T06:05:55;100373.41;;;10.31;61.16
38780;BME280;29273;49.962;9.768;2024-02-21T06:08:20;100370.94;;;10.29;61.32
38780;BME280;29273;49.962;9.768;2024-02-21T06:10:46;100362.34;;;10.27;61.58
38780;BME280;29273;49.962;9.768;2024-02-21T06:13:11;100355.44;;;10.26;61.76
38780;BME280;29273;49.962;9.768;2024-02-21T06:15:36;100363.38;;;10.26;62.10
38780;BME280;29273;49.962;9.768;2024-02-21T06:18:02;100365.84;;;10.28;62.12
38780;BME280;29273;49.962;9.768;2024-02-21T06:20:28;100379.88;;;10.28;61.88
38780;BME280;29273;49.962;9.768;2024-02-21T06:22:54;100369.28;;;10.28;62.12
38780;BME280;29273;49.962;9.768;2024-02-21T06:25:19;100365.66;;;10.29;62.11
38780;BME280;29273;49.962;9.768;2024-02-21T06:27:45;100358.25;;;10.25;62.19
38780;BME280;29273;49.962;9.768;2024-02-21T06:30:10;100363.63;;;10.31;62.23
38780;BME280;29273;49.962;9.768;2024-02-21T06:32:36;100356.53;;;10.32;62.39
38780;BME280;29273;49.962;9.768;2024-02-21T06:35:05;100366.56;;;10.36;62.50
38780;BME280;29273;49.962;9.768;2024-02-21T06:37:30;100365.09;;;10.34;62.30
38780;BME280;29273;49.962;9.768;2024-02-21T06:39:57;100355.34;;;10.34;62.25
38780;BME280;29273;49.962;9.768;2024-02-21T06:42:26;100348.47;;;10.40;62.45
38780;BME280;29273;49.962;9.768;2024-02-21T06:44:51;100359.44;;;10.37;62.33
38780;BME280;29273;49.962;9.768;2024-02-21T06:47:17;100343.56;;;10.37;62.53
38780;BME280;29273;49.962;9.768;2024-02-21T06:49:42;100351.31;;;10.39;62.35
38780;BME280;29273;49.962;9.768;2024-02-21T06:52:08;100345.81;;;10.40;62.51
38780;BME280;29273;49.962;9.768;2024-02-21T06:54:33;100339.53;;;10.41;62.54
38780;BME280;29273;49.962;9.768;2024-02-21T06:56:59;100335.06;;;10.42;62.59
38780;BME280;29273;49.962;9.768;2024-02-21T06:59:24;100332.22;;;10.43;62.69
38780;BME280;29273;49.962;9.768;2024-02-21T07:01:54;100334.13;;;10.49;62.69
38780;BME280;29273;49.962;9.768;2024-02-21T07:04:21;100326.75;;;10.45;62.95
38780;BME280;29273;49.962;9.768;2024-02-21T07:06:46;100331.00;;;10.46;62.57
38780;BME280;29273;49.962;9.768;2024-02-21T07:09:11;100346.72;;;10.47;62.42
38780;BME280;29273;49.962;9.768;2024-02-21T07:11:37;100354.47;;;10.49;62.59
38780;BME280;29273;49.962;9.768;2024-02-21T07:14:02;100350.81;;;10.50;62.52
38780;BME280;29273;49.962;9.768;2024-02-21T07:16:28;100347.19;;;10.51;62.63
38780;BME280;29273;49.962;9.768;2024-02-21T07:18:55;100347.63;;;10.54;62.72
38780;BME280;29273;49.962;9.768;2024-02-21T07:21:20;100332.72;;;10.53;62.82
38780;BME280;29273;49.962;9.768;2024-02-21T07:23:46;100330.88;;;10.54;62.67
38780;BME280;29273;49.962;9.768;2024-02-21T07:26:11;100330.69;;;10.55;62.76
38780;BME280;29273;49.962;9.768;2024-02-21T07:28:36;100327.06;;;10.57;62.66
38780;BME280;29273;49.962;9.768;2024-02-21T07:31:03;100323.41;;;10.58;62.59
38780;BME280;29273;49.962;9.768;2024-02-21T07:33:28;100321.56;;;10.58;62.63
38780;BME280;29273;49.962;9.768;2024-02-21T07:35:56;100333.16;;;10.57;62.38
38780;BME280;29273;49.962;9.768;2024-02-21T07:38:21;100331.34;;;10.58;62.57
38780;BME280;29273;49.962;9.768;2024-02-21T07:40:47;100326.69;;;10.60;62.86
38780;BME280;29273;49.962;9.768;2024-02-21T07:43:13;100332.59;;;10.62;62.75
38780;BME280;29273;49.962;9.768;2024-02-21T07:45:39;100322.00;;;10.62;62.83
38780;BME280;29273;49.962;9.768;2024-02-21T07:48:05;100320.81;;;10.64;62.88
38780;BME280;29273;49.962;9.768;2024-02-21T07:50:31;100320.66;;;10.66;62.87
38780;BME280;29273;49.962;9.768;2024-02-21T07:52:57;100309.81;;;10.67;62.72
38780;BME280;29273;49.962;9.768;2024-02-21T07:55:23;100314.94;;;10.69;62.31
38780;BME280;29273;49.962;9.768;2024-02-21T07:57:48;100311.28;;;10.70;62.26
38780;BME280;29273;49.962;9.768;2024-02-21T08:00:15;100305.81;;;10.71;62.28
38780;BME280;29273;49.962;9.768;2024-02-21T08:02:45;100305.63;;;10.73;62.46
38780;BME280;29273;49.962;9.768;2024-02-21T08:05:11;100311.72;;;10.73;62.33
38780;BME280;29273;49.962;9.768;2024-02-21T08:07:38;100308.09;;;10.74;62.48
38780;BME280;29273;49.962;9.768;2024-02-21T08:10:04;100302.78;;;10.74;61.96
38780;BME280;29273;49.962;9.768;2024-02-21T08:12:29;100297.47;;;10.74;61.92
38780;BME280;29273;49.962;9.768;2024-02-21T08:14:55;100297.66;;;10.73;61.99
38780;BME280;29273;49.962;9.768;2024-02-21T08:17:20;100304.81;;;10.72;61.75
38780;BME280;29273;49.962;9.768;2024-02-21T08:19:46;100306.44;;;10.73;61.68
38780;BME280;29273;49.962;9.768;2024-02-21T08:22:13;100308.47;;;10.71;61.67
38780;BME280;29273;49.962;9.768;2024-02-21T08:24:38;100308.47;;;10.71;61.88
38780;BME280;29273;49.962;9.768;2024-02-21T08:27:04;100317.41;;;10.70;61.95
38780;BME280;29273;49.962;9.768;2024-02-21T08:29:29;100307.84;;;10.69;62.12
38780;BME280;29273;49.962;9.768;2024-02-21T08:31:55;100303.34;;;10.70;62.43
38780;BME280;29273;49.962;9.768;2024-02-21T08:34:20;100305.00;;;10.71;62.37
38780;BME280;29273;49.962;9.768;2024-02-21T08:36:46;100303.16;;;10.71;62.53
38780;BME280;29273;49.962;9.768;2024-02-21T08:39:11;100296.66;;;10.74;62.81
38780;BME280;29273;49.962;9.768;2024-02-21T08:41:40;100297.28;;;10.76;62.61
38780;BME280;29273;49.962;9.768;2024-02-21T08:44:05;100290.78;;;10.79;62.78
38780;BME280;29273;49.962;9.768;2024-02-21T08:46:32;100283.25;;;10.82;62.98
38780;BME280;29273;49.962;9.768;2024-02-21T08:48:58;100285.53;;;10.85;62.80
38780;BME280;29273;49.962;9.768;2024-02-21T08:51:23;100278.84;;;10.89;63.01
38780;BME280;29273;49.962;9.768;2024-02-21T08:53:49;100285.41;;;10.93;62.89
38780;BME280;29273;49.962;9.768;2024-02-21T08:56:15;100282.19;;;10.98;62.48
38780;BME280;29273;49.962;9.768;2024-02-21T08:58:41;100279.56;;;11.05;62.28
38780;BME280;29273;49.962;9.768;2024-02-21T09:01:07;100268.59;;;11.08;61.71
38780;BME280;29273;49.962;9.768;2024-02-21T09:03:38;100266.22;;;11.20;62.51
38780;BME280;29273;49.962;9.768;2024-02-21T09:06:05;100267.03;;;11.20;60.91
38780;BME280;29273;49.962;9.768;2024-02-21T09:08:31;100261.78;;;11.27;60.69
38780;BME280;29273;49.962;9.768;2024-02-21T09:10:56;100256.06;;;11.30;60.72
38780;BME280;29273;49.962;9.768;2024-02-21T09:13:22;100265.72;;;11.38;60.50
38780;BME280;29273;49.962;9.768;2024-02-21T09:15:49;100248.38;;;11.42;59.74
38780;BME280;29273;49.962;9.768;2024-02-21T09:18:15;100251.28;;;11.47;59.73
38780;BME280;29273;49.962;9.768;2024-02-21T09:20:41;100243.53;;;11.52;60.03
38780;BME280;29273;49.962;9.768;2024-02-21T09:23:07;100247.44;;;11.56;59.61
38780;BME280;29273;49.962;9.768;2024-02-21T09:25:32;100240.91;;;11.59;59.51
38780;BME280;29273;49.962;9.768;2024-02-21T09:27:58;100237.69;;;11.63;59.04
38780;BME280;29273;49.962;9.768;2024-02-21T09:30:24;100244.03;;;11.69;59.38
38780;BME280;29273;49.962;9.768;2024-02-21T09:32:49;100231.38;;;11.71;59.18
38780;BME280;29273;49.962;9.768;2024-02-21T09:35:15;100226.50;;;11.75;59.01
38780;BME280;29273;49.962;9.768;2024-02-21T09:37:40;100223.44;;;11.78;59.44
38780;BME280;29273;49.962;9.768;2024-02-21T09:40:07;100218.56;;;11.81;59.27
38780;BME280;29273;49.962;9.768;2024-02-21T09:42:39;100204.50;;;11.88;59.26
38780;BME280;29273;49.962;9.768;2024-02-21T09:45:20;100203.25;;;11.90;59.33
38780;BME280;29273;49.962;9.768;2024-02-21T09:48:13;100214.97;;;11.96;60.64
38780;BME280;29273;49.962;9.768;2024-02-21T09:50:43;100209.22;;;11.99;59.99
38780;BME280;29273;49.962;9.768;2024-02-21T09:53:11;100200.06;;;12.01;60.32
38780;BME280;29273;49.962;9.768;2024-02-21T09:55:38;100199.88;;;12.03;59.09
38780;BME280;29273;49.962;9.768;2024-02-21T09:58:07;100200.47;;;12.05;59.57
38780;BME280;29273;49.962;9.768;2024-02-21T10:00:38;100195.16;;;12.05;58.78
38780;BME280;29273;49.962;9.768;2024-02-21T10:03:03;100202.53;;;12.10;59.11
38780;BME280;29273;49.962;9.768;2024-02-21T10:05:34;100201.94;;;12.14;58.48
38780;BME280;29273;49.962;9.768;2024-02-21T10:08:01;100198.25;;;12.15;57.86
38780;BME280;29273;49.962;9.768;2024-02-21T10:10:27;100191.72;;;12.18;58.37
38780;BME280;29273;49.962;9.768;2024-02-21T10:12:53;100188.47;;;12.23;58.04
38780;BME280;29273;49.962;9.768;2024-02-21T10:15:24;100186.41;;;12.25;58.19
38780;BME280;29273;49.962;9.768;2024-02-21T10:17:58;100182.97;;;12.31;59.86
38780;BME280;29273;49.962;9.768;2024-02-21T10:20:24;100188.66;;;12.28;58.20
38780;BME280;29273;49.962;9.768;2024-02-21T10:23:00;100188.66;;;12.34;59.18
38780;BME280;29273;49.962;9.768;2024-02-21T10:25:27;100187.22;;;12.32;57.32
38780;BME280;29273;49.962;9.768;2024-02-21T10:27:52;100187.84;;;12.34;57.06
38780;BME280;29273;49.962;9.768;2024-02-21T10:30:18;100179.66;;;12.35;57.61
38780;BME280;29273;49.962;9.768;2024-02-21T10:32:53;100175.38;;;12.48;59.07
38780;BME280;29273;49.962;9.768;2024-02-21T10:35:32;100162.09;;;12.48;59.79
38780;BME280;29273;49.962;9.768;2024-02-21T10:37:58;100170.06;;;12.48;57.50
38780;BME280;29273;49.962;9.768;2024-02-21T10:40:25;100156.78;;;12.54;57.92
38780;BME280;29273;49.962;9.768;2024-02-21T10:45:34;100151.66;;;12.66;57.54
38780;BME280;29273;49.962;9.768;2024-02-21T10:48:12;100152.25;;;12.75;59.56
38780;BME280;29273;49.962;9.768;2024-02-21T10:50:57;100139.78;;;12.75;60.08
38780;BME280;29273;49.962;9.768;2024-02-21T10:53:44;100129.97;;;12.83;59.47
38780;BME280;29273;49.962;9.768;2024-02-21T10:56:29;100124.63;;;12.89;59.48
38780;BME280;29273;49.962;9.768;2024-02-21T10:58:57;100117.84;;;12.93;58.23
38780;BME280;29273;49.962;9.768;2024-02-21T11:01:23;100112.34;;;12.95;57.16
38780;BME280;29273;49.962;9.768;2024-02-21T11:03:51;100109.25;;;13.05;57.41
38780;BME280;29273;49.962;9.768;2024-02-21T11:06:18;100097.13;;;13.09;56.90
38780;BME280;29273;49.962;9.768;2024-02-21T11:08:45;100091.19;;;13.13;56.60
38780;BME280;29273;49.962;9.768;2024-02-21T11:11:14;100084.63;;;13.23;58.17
38780;BME280;29273;49.962;9.768;2024-02-21T11:13:44;100087.28;;;13.23;56.15
38780;BME280;29273;49.962;9.768;2024-02-21T11:16:21;100088.69;;;13.32;57.37
38780;BME280;29273;49.962;9.768;2024-02-21T11:18:47;100081.13;;;13.29;54.44
38780;BME280;29273;49.962;9.768;2024-02-21T11:21:13;100077.19;;;13.31;54.94
38780;BME280;29273;49.962;9.768;2024-02-21T11:23:38;100064.53;;;13.33;54.50
38780;BME280;29273;49.962;9.768;2024-02-21T11:26:08;100064.50;;;13.40;55.68
38780;BME280;29273;49.962;9.768;2024-02-21T11:28:34;100056.72;;;13.39;54.05
38780;BME280;29273;49.962;9.768;2024-02-21T11:31:14;100054.66;;;13.47;57.19
38780;BME280;29273;49.962;9.768;2024-02-21T11:33:40;100050.78;;;13.43;54.06
38780;BME280;29273;49.962;9.768;2024-02-21T11:36:08;100041.56;;;13.46;54.24
38780;BME280;29273;49.962;9.768;2024-02-21T11:38:33;100038.91;;;13.46;53.76
38780;BME280;29273;49.962;9.768;2024-02-21T11:40:59;100037.63;;;13.48;53.49
38780;BME280;29273;49.962;9.768;2024-02-21T11:43:24;100031.09;;;13.51;53.67
38780;BME280;29273;49.962;9.768;2024-02-21T11:45:58;100021.78;;;13.60;56.23
38780;BME280;29273;49.962;9.768;2024-02-21T11:48:25;100020.38;;;13.58;54.25
38780;BME280;29273;49.962;9.768;2024-02-21T11:50:54;100013.97;;;13.65;55.95
38780;BME280;29273;49.962;9.768;2024-02-21T11:53:20;100017.09;;;13.62;53.77
38780;BME280;29273;49.962;9.768;2024-02-21T11:55:46;100007.25;;;13.63;53.56
38780;BME280;29273;49.962;9.768;2024-02-21T11:58:11;99993.31;;;13.67;54.10
38780;BME280;29273;49.962;9.768;2024-02-21T12:00:37;99988.56;;;13.69;54.08
38780;BME280;29273;49.962;9.768;2024-02-21T12:03:04;99977.06;;;13.76;53.90
38780;BME280;29273;49.962;9.768;2024-02-21T12:05:30;99962.69;;;13.77;52.54
38780;BME280;29273;49.962;9.768;2024-02-21T12:07:56;99958.81;;;13.79;53.39
38780;BME280;29273;49.962;9.768;2024-02-21T12:10:23;99963.47;;;13.84;52.83
38780;BME280;29273;49.962;9.768;2024-02-21T12:12:51;99962.19;;;13.86;52.64
38780;BME280;29273;49.962;9.768;2024-02-21T12:15:18;99961.56;;;13.91;52.72
38780;BME280;29273;49.962;9.768;2024-02-21T12:17:44;99953.56;;;13.91;51.55
38780;BME280;29273;49.962;9.768;2024-02-21T12:20:09;99946.59;;;13.90;51.08
38780;BME280;29273;49.962;9.768;2024-02-21T12:22:43;99941.56;;;14.00;54.69
38780;BME280;29273;49.962;9.768;2024-02-21T12:25:21;99953.88;;;14.01;55.53
38780;BME280;29273;49.962;9.768;2024-02-21T12:27:54;99934.88;;;13.98;52.12
38780;BME280;29273;49.962;9.768;2024-02-21T12:30:19;99925.00;;;13.98;50.85
38780;BME280;29273;49.962;9.768;2024-02-21T12:32:46;99929.47;;;14.04;51.79
38780;BME280;29273;49.962;9.768;2024-02-21T12:35:11;99923.13;;;14.05;51.28
38780;BME280;29273;49.962;9.768;2024-02-21T12:37:37;99912.84;;;14.09;50.63
38780;BME280;29273;49.962;9.768;2024-02-21T12:40:07;99906.59;;;14.15;51.57
38780;BME280;29273;49.962;9.768;2024-02-21T12:42:33;99911.25;;;14.20;51.43
38780;BME280;29273;49.962;9.768;2024-02-21T12:44:59;99904.69;;;14.22;50.69
38780;BME280;29273;49.962;9.768;2024-02-21T12:47:24;99905.28;;;14.24;50.98
38780;BME280;29273;49.962;9.768;2024-02-21T12:49:54;99896.19;;;14.32;52.03
38780;BME280;29273;49.962;9.768;2024-02-21T12:52:20;99890.22;;;14.30;50.76